Time;durP1;ratioP1;P1;durP2;ratioP2;P2;SDS_P1;SDS_P2;PMS_P1;PMS_P2;Temp;Humidity;BMP_temperature;BMP_pressure;BME280_temperature;BME280_humidity;BME280_pressure;Samples;Min_cycle;Max_cycle;Signal;HPM_P1;HPM_P2
2022/07/07 00:01:15;;;;;;;0.00;0.00;;;16.10;99.90;;;;;;5097330;28;20043;-78
2022/07/07 00:03:41;;;;;;;0.00;0.00;;;16.10;99.90;;;;;;5097156;28;20043;-79
2022/07/07 00:06:07;;;;;;;0.00;0.00;;;16.10;99.90;;;;;;5080500;28;20047;-79
2022/07/07 00:08:33;;;;;;;0.00;0.00;;;16.10;99.90;;;;;;5112306;28;20388;-78
2022/07/07 00:10:59;;;;;;;0.00;0.00;;;16.10;99.90;;;;;;5093736;28;20487;-79
2022/07/07 00:13:43;;;;;;;0.20;0.10;;;16.10;99.90;;;;;;5092746;28;20139;-78
2022/07/07 00:16:13;;;;;;;0.00;0.00;;;16.20;99.90;;;;;;5058958;28;20150;-79
2022/07/07 00:18:38;;;;;;;0.00;0.00;;;16.20;99.90;;;;;;5075758;28;20060;-78
2022/07/07 00:21:04;;;;;;;0.00;0.00;;;16.20;99.90;;;;;;5075723;28;20054;-78
2022/07/07 00:23:33;;;;;;;0.20;0.20;;;16.20;99.90;;;;;;5075785;28;20046;-79
2022/07/07 00:25:59;;;;;;;0.10;0.10;;;16.20;99.90;;;;;;5075723;28;20055;-78
2022/07/07 00:28:31;;;;;;;0.00;0.00;;;16.20;99.90;;;;;;5059064;28;20130;-79
2022/07/07 00:30:57;;;;;;;0.10;0.00;;;16.20;99.90;;;;;;5075309;28;20063;-79
2022/07/07 00:33:32;;;;;;;0.00;0.00;;;16.10;99.90;;;;;;5060458;28;20051;-79
2022/07/07 00:35:57;;;;;;;0.93;0.20;;;16.20;99.90;;;;;;5075648;28;20039;-79
2022/07/07 00:38:23;;;;;;;0.15;0.15;;;16.10;99.90;;;;;;5075575;28;20487;-80
2022/07/07 00:40:53;;;;;;;0.10;0.00;;;16.10;99.90;;;;;;5075658;28;20089;-79
2022/07/07 00:43:19;;;;;;;0.25;0.10;;;16.10;99.90;;;;;;5058964;28;20085;-79
2022/07/07 00:45:47;;;;;;;0.00;0.00;;;16.10;99.90;;;;;;5075144;28;20526;-79
2022/07/07 00:48:13;;;;;;;0.00;0.00;;;16.10;99.90;;;;;;5075535;28;20040;-79
2022/07/07 00:50:39;;;;;;;0.00;0.00;;;16.10;99.90;;;;;;5084299;28;20051;-79
2022/07/07 00:53:04;;;;;;;0.00;0.00;;;16.10;99.90;;;;;;5096601;28;20047;-79
2022/07/07 00:55:30;;;;;;;0.00;0.00;;;16.10;99.90;;;;;;5079792;28;20047;-79
2022/07/07 00:57:56;;;;;;;0.00;0.00;;;16.10;99.90;;;;;;5096305;28;20051;-79
2022/07/07 01:00:22;;;;;;;1.65;0.32;;;16.10;99.90;;;;;;5096559;28;20043;-79
2022/07/07 01:02:48;;;;;;;0.00;0.00;;;16.20;99.90;;;;;;5096602;28;20081;-78
2022/07/07 01:05:13;;;;;;;0.00;0.00;;;16.10;99.90;;;;;;5096531;28;20472;-79
2022/07/07 01:07:39;;;;;;;0.00;0.00;;;16.20;99.90;;;;;;5096487;28;20117;-79
2022/07/07 01:10:07;;;;;;;0.00;0.00;;;16.10;99.90;;;;;;5095781;28;20044;-79
2022/07/07 01:12:37;;;;;;;0.00;0.00;;;16.10;99.90;;;;;;5079146;28;20501;-79
2022/07/07 01:15:07;;;;;;;0.17;0.17;;;16.20;99.90;;;;;;5095988;28;20044;-79
2022/07/07 01:17:33;;;;;;;0.20;0.20;;;16.20;99.90;;;;;;5094767;28;20047;-79
2022/07/07 01:20:02;;;;;;;0.00;0.00;;;16.20;99.90;;;;;;5095028;28;20100;-79
2022/07/07 01:22:31;;;;;;;0.00;0.00;;;16.20;99.90;;;;;;5079533;28;20376;-79
2022/07/07 01:24:59;;;;;;;0.00;0.00;;;16.20;99.90;;;;;;5096084;28;20040;-79
2022/07/07 01:27:25;;;;;;;0.00;0.00;;;16.20;99.90;;;;;;5096346;28;20096;-79
2022/07/07 01:29:56;;;;;;;1.10;0.75;;;16.20;99.90;;;;;;5096253;28;20047;-79
2022/07/07 01:32:23;;;;;;;0.00;0.00;;;16.20;99.90;;;;;;5079620;28;20083;-79
2022/07/07 01:34:50;;;;;;;2.05;0.45;;;16.20;99.90;;;;;;5096215;28;20051;-79
2022/07/07 01:37:17;;;;;;;0.00;0.00;;;16.20;99.90;;;;;;5092726;28;20411;-79
2022/07/07 01:39:43;;;;;;;0.00;0.00;;;16.20;99.90;;;;;;5098246;28;20048;-79
2022/07/07 01:42:10;;;;;;;0.00;0.00;;;16.20;99.90;;;;;;5100125;28;20051;-79
2022/07/07 01:44:38;;;;;;;0.00;0.00;;;16.20;99.90;;;;;;5083087;28;20048;-79
2022/07/07 01:47:05;;;;;;;0.40;0.32;;;16.20;99.90;;;;;;5083262;28;20090;-79
2022/07/07 01:49:33;;;;;;;0.00;0.00;;;16.20;99.90;;;;;;5099613;28;20043;-79
2022/07/07 01:52:00;;;;;;;0.00;0.00;;;16.20;99.90;;;;;;5100136;28;20399;-79
2022/07/07 01:54:33;;;;;;;0.20;0.20;;;16.20;99.90;;;;;;5068455;28;20087;-79
2022/07/07 01:56:59;;;;;;;0.00;0.00;;;16.20;99.90;;;;;;5082954;28;20483;-79
2022/07/07 01:59:25;;;;;;;0.00;0.00;;;16.20;99.90;;;;;;5100315;28;20140;-79
2022/07/07 02:01:51;;;;;;;0.00;0.00;;;16.10;99.90;;;;;;5082954;28;20082;-79
2022/07/07 02:04:17;;;;;;;0.00;0.00;;;16.20;99.90;;;;;;5099640;28;20075;-79
2022/07/07 02:06:43;;;;;;;0.00;0.00;;;16.10;99.90;;;;;;5099892;28;20387;-79
2022/07/07 02:09:15;;;;;;;0.00;0.00;;;16.10;99.90;;;;;;5095834;28;20052;-79
2022/07/07 02:11:41;;;;;;;0.43;0.00;;;16.10;99.90;;;;;;5078946;28;20468;-79
2022/07/07 02:14:07;;;;;;;0.00;0.00;;;16.10;99.90;;;;;;5079291;28;20083;-79
2022/07/07 02:16:33;;;;;;;0.08;0.00;;;16.10;99.90;;;;;;5096195;28;20082;-79
2022/07/07 02:19:06;;;;;;;0.10;0.00;;;16.10;99.90;;;;;;5096148;28;20054;-79
2022/07/07 02:21:32;;;;;;;0.10;0.03;;;16.00;99.90;;;;;;5079466;28;20047;-79
2022/07/07 02:23:58;;;;;;;0.08;0.00;;;16.00;99.90;;;;;;5079217;28;20074;-79
2022/07/07 02:26:33;;;;;;;0.15;0.15;;;16.00;99.90;;;;;;5079324;28;20044;-79
2022/07/07 02:29:00;;;;;;;0.00;0.00;;;15.90;99.90;;;;;;5079303;28;20135;-79
2022/07/07 02:31:25;;;;;;;0.00;0.00;;;15.90;99.90;;;;;;5078596;28;20093;-79
2022/07/07 02:33:51;;;;;;;0.28;0.28;;;15.90;99.90;;;;;;5078957;28;20044;-79
2022/07/07 02:36:19;;;;;;;0.00;0.00;;;16.00;99.90;;;;;;5095795;28;20044;-79
2022/07/07 02:38:46;;;;;;;2.85;0.63;;;15.90;99.90;;;;;;5095695;28;20047;-79
2022/07/07 02:41:12;;;;;;;0.13;0.13;;;16.00;99.90;;;;;;5078707;28;20040;-80
2022/07/07 02:43:37;;;;;;;0.45;0.00;;;15.90;99.90;;;;;;5095592;28;20047;-79
2022/07/07 02:46:05;;;;;;;0.00;0.00;;;15.90;99.90;;;;;;5095233;28;20044;-79
2022/07/07 02:48:31;;;;;;;0.30;0.00;;;15.90;99.90;;;;;;5078008;28;20059;-79
2022/07/07 02:50:56;;;;;;;0.00;0.00;;;16.00;99.90;;;;;;5094259;28;20480;-79
2022/07/07 02:53:25;;;;;;;0.00;0.00;;;15.90;99.90;;;;;;5095258;28;20040;-79
2022/07/07 02:56:07;;;;;;;0.00;0.00;;;15.90;99.90;;;;;;5093801;28;20051;-79
2022/07/07 02:58:32;;;;;;;0.00;0.00;;;15.90;99.90;;;;;;5077352;28;20480;-79
2022/07/07 03:00:59;;;;;;;0.00;0.00;;;15.90;99.90;;;;;;5078435;28;20094;-80
2022/07/07 03:03:24;;;;;;;0.00;0.00;;;15.90;99.90;;;;;;5077718;28;20060;-79
2022/07/07 03:05:51;;;;;;;0.00;0.00;;;15.90;99.90;;;;;;5095589;28;20067;-79
2022/07/07 03:08:17;;;;;;;0.00;0.00;;;15.90;99.90;;;;;;5096762;28;20055;-80
2022/07/07 03:10:43;;;;;;;0.00;0.00;;;15.90;99.90;;;;;;5080746;28;20048;-79
2022/07/07 03:13:09;;;;;;;0.00;0.00;;;15.90;99.90;;;;;;5097956;28;20086;-79
2022/07/07 03:15:34;;;;;;;0.00;0.00;;;15.90;99.90;;;;;;5098336;28;20075;-80
2022/07/07 03:18:00;;;;;;;0.00;0.00;;;15.90;99.90;;;;;;5081246;28;20552;-80
2022/07/07 03:20:27;;;;;;;0.00;0.00;;;15.90;99.90;;;;;;5081247;28;20058;-80
2022/07/07 03:22:52;;;;;;;0.00;0.00;;;15.90;99.90;;;;;;5098319;28;20127;-79
2022/07/07 03:25:18;;;;;;;0.00;0.00;;;15.90;99.90;;;;;;5098300;28;20130;-79
2022/07/07 03:27:44;;;;;;;0.00;0.00;;;15.90;99.90;;;;;;5115248;28;20090;-79
2022/07/07 03:30:10;;;;;;;0.00;0.00;;;15.90;99.90;;;;;;5097969;28;20429;-79
2022/07/07 03:32:41;;;;;;;0.00;0.00;;;15.90;99.90;;;;;;5098157;28;20089;-79
2022/07/07 03:35:10;;;;;;;0.00;0.00;;;15.90;99.90;;;;;;5098117;28;20079;-80
2022/07/07 03:37:36;;;;;;;0.00;0.00;;;15.90;99.90;;;;;;5097955;28;20415;-79
2022/07/07 03:40:04;;;;;;;0.00;0.00;;;15.90;99.90;;;;;;5080442;28;20052;-79
2022/07/07 03:42:35;;;;;;;0.00;0.00;;;15.90;99.90;;;;;;5082191;28;20051;-79
2022/07/07 03:45:01;;;;;;;0.00;0.00;;;15.90;99.90;;;;;;5098279;28;20051;-79
2022/07/07 03:47:32;;;;;;;0.00;0.00;;;15.90;99.90;;;;;;5080477;28;20086;-79
2022/07/07 03:49:59;;;;;;;0.00;0.00;;;15.90;99.90;;;;;;5097538;28;20102;-79
2022/07/07 03:52:25;;;;;;;0.00;0.00;;;15.90;99.90;;;;;;5097703;28;20127;-79
2022/07/07 03:54:52;;;;;;;0.25;0.25;;;15.90;99.90;;;;;;5080210;28;20093;-79
2022/07/07 03:57:18;;;;;;;0.00;0.00;;;15.90;99.90;;;;;;5097594;28;20051;-79
2022/07/07 03:59:43;;;;;;;0.00;0.00;;;15.90;99.90;;;;;;5080914;28;20131;-79
2022/07/07 04:02:09;;;;;;;0.00;0.00;;;15.80;99.90;;;;;;5097089;28;20065;-79
2022/07/07 04:04:35;;;;;;;0.00;0.00;;;15.80;99.90;;;;;;5080413;28;20055;-79
2022/07/07 04:07:01;;;;;;;0.22;0.20;;;15.90;99.90;;;;;;5097358;28;20078;-79
2022/07/07 04:09:26;;;;;;;0.00;0.00;;;15.90;99.90;;;;;;5096897;28;20435;-79
2022/07/07 04:11:52;;;;;;;0.00;0.00;;;15.90;99.90;;;;;;5097091;28;20062;-80
2022/07/07 04:14:18;;;;;;;0.00;0.00;;;15.80;99.90;;;;;;5097114;28;20043;-79
2022/07/07 04:16:44;;;;;;;0.43;0.28;;;15.80;99.90;;;;;;5063628;28;20048;-80
2022/07/07 04:19:11;;;;;;;0.00;0.00;;;15.80;99.90;;;;;;5097084;28;20073;-79
2022/07/07 04:21:36;;;;;;;0.08;0.08;;;15.80;99.90;;;;;;5097108;28;20378;-79
2022/07/07 04:24:02;;;;;;;0.00;0.00;;;15.80;99.90;;;;;;5080157;28;20130;-79
2022/07/07 04:26:28;;;;;;;0.00;0.00;;;15.70;99.90;;;;;;5079423;28;20113;-79
2022/07/07 04:28:54;;;;;;;0.00;0.00;;;15.80;99.90;;;;;;5096987;28;20074;-79
2022/07/07 04:31:20;;;;;;;0.00;0.00;;;15.70;99.90;;;;;;5079628;28;20039;-79
2022/07/07 04:33:47;;;;;;;0.00;0.00;;;15.70;99.90;;;;;;5096912;28;20121;-79
2022/07/07 04:36:14;;;;;;;0.00;0.00;;;15.70;99.90;;;;;;5096763;28;20126;-79
2022/07/07 04:38:40;;;;;;;0.00;0.00;;;15.80;99.90;;;;;;5079619;28;20371;-80
2022/07/07 04:41:06;;;;;;;0.00;0.00;;;15.70;99.90;;;;;;5096585;28;20052;-80
2022/07/07 04:43:32;;;;;;;0.00;0.00;;;15.70;99.90;;;;;;5096812;28;20047;-80
2022/07/07 04:45:59;;;;;;;0.10;0.10;;;15.70;99.90;;;;;;5096497;28;20086;-79
2022/07/07 04:48:24;;;;;;;0.00;0.00;;;15.70;99.90;;;;;;5096750;28;20075;-79
2022/07/07 04:50:50;;;;;;;0.00;0.00;;;15.70;99.90;;;;;;5079184;28;20058;-79
2022/07/07 04:53:15;;;;;;;0.00;0.00;;;15.70;99.90;;;;;;5079219;28;20051;-79
2022/07/07 04:55:41;;;;;;;0.05;0.00;;;15.70;99.90;;;;;;5079478;28;20040;-79
2022/07/07 04:58:07;;;;;;;0.00;0.00;;;15.60;99.90;;;;;;5079152;28;20097;-79
2022/07/07 05:00:32;;;;;;;0.00;0.00;;;15.50;99.90;;;;;;5079378;28;20101;-80
2022/07/07 05:02:58;;;;;;;0.00;0.00;;;15.50;99.90;;;;;;5096386;28;20097;-80
2022/07/07 05:05:24;;;;;;;0.00;0.00;;;15.40;99.90;;;;;;5096180;28;20126;-80
2022/07/07 05:07:55;;;;;;;0.00;0.00;;;15.40;99.90;;;;;;5096420;28;20466;-79
2022/07/07 05:10:25;;;;;;;0.00;0.00;;;15.40;99.90;;;;;;5096157;28;20075;-79
2022/07/07 05:12:53;;;;;;;0.00;0.00;;;15.40;99.90;;;;;;5096202;28;20055;-79
2022/07/07 05:15:19;;;;;;;0.00;0.00;;;15.40;99.90;;;;;;5095306;28;20043;-79
2022/07/07 05:17:45;;;;;;;0.40;0.22;;;15.40;99.90;;;;;;5078885;28;20062;-79
2022/07/07 05:20:11;;;;;;;0.85;0.20;;;15.40;99.90;;;;;;5095852;28;20051;-79
2022/07/07 05:22:38;;;;;;;0.00;0.00;;;15.40;99.90;;;;;;5096075;28;20368;-79
2022/07/07 05:25:04;;;;;;;0.00;0.00;;;15.50;99.90;;;;;;5079354;28;20044;-79
2022/07/07 05:27:30;;;;;;;0.47;0.25;;;15.40;99.90;;;;;;5079020;28;20055;-79
2022/07/07 05:29:56;;;;;;;0.00;0.00;;;15.40;99.90;;;;;;5096018;28;20043;-79
2022/07/07 05:32:22;;;;;;;0.20;0.20;;;15.30;99.90;;;;;;5079207;28;20432;-79
2022/07/07 05:35:06;;;;;;;0.00;0.00;;;15.40;99.90;;;;;;5114340;28;20030;-79
2022/07/07 05:37:32;;;;;;;0.20;0.20;;;15.30;99.90;;;;;;5079659;28;20049;-78
2022/07/07 05:39:58;;;;;;;0.00;0.00;;;15.40;99.90;;;;;;5096043;28;20127;-79
2022/07/07 05:42:23;;;;;;;0.00;0.00;;;15.40;99.90;;;;;;5079079;28;20287;-79
2022/07/07 05:44:56;;;;;;;0.00;0.00;;;15.40;99.90;;;;;;5095960;28;20395;-79
2022/07/07 05:47:22;;;;;;;0.00;0.00;;;15.50;99.90;;;;;;5095781;28;20478;-79
2022/07/07 05:49:48;;;;;;;0.00;0.00;;;15.50;99.90;;;;;;5095779;28;20079;-79
2022/07/07 05:52:24;;;;;;;0.00;0.00;;;15.60;99.90;;;;;;5096391;28;20423;-79
2022/07/07 05:54:49;;;;;;;0.00;0.00;;;15.70;99.90;;;;;;5095964;28;20058;-79
2022/07/07 05:57:16;;;;;;;0.00;0.00;;;15.80;99.90;;;;;;5101082;28;20118;-79
2022/07/07 05:59:50;;;;;;;2.08;0.55;;;15.90;99.90;;;;;;5078721;28;20131;-79
2022/07/07 06:02:18;;;;;;;0.00;0.00;;;15.90;99.90;;;;;;5079632;28;20039;-79
2022/07/07 06:04:44;;;;;;;0.00;0.00;;;16.00;99.90;;;;;;5095695;28;20498;-79
2022/07/07 06:07:09;;;;;;;0.00;0.00;;;16.00;99.90;;;;;;5096147;28;20047;-79
2022/07/07 06:09:35;;;;;;;0.55;0.20;;;16.10;99.90;;;;;;5074957;28;20055;-79
2022/07/07 06:12:01;;;;;;;0.00;0.00;;;16.10;99.90;;;;;;5109258;28;20055;-79
2022/07/07 06:14:31;;;;;;;0.00;0.00;;;16.10;99.90;;;;;;5075019;28;20040;-80
2022/07/07 06:16:57;;;;;;;1.65;0.28;;;16.00;99.90;;;;;;5075317;28;20080;-79
2022/07/07 06:19:24;;;;;;;0.00;0.00;;;16.10;99.90;;;;;;5075558;28;20113;-80
2022/07/07 06:21:50;;;;;;;0.10;0.10;;;16.10;99.90;;;;;;5075282;28;20052;-79
2022/07/07 06:24:23;;;;;;;0.13;0.13;;;16.10;99.90;;;;;;5075414;28;20400;-79
2022/07/07 06:26:58;;;;;;;0.00;0.00;;;16.20;99.90;;;;;;5063480;28;20064;-79
2022/07/07 06:29:25;;;;;;;1.00;0.28;;;16.20;99.90;;;;;;5079166;28;20040;-80
2022/07/07 06:32:00;;;;;;;0.30;0.10;;;16.10;99.90;;;;;;5078707;28;20139;-79
2022/07/07 06:34:26;;;;;;;0.30;0.30;;;16.10;99.90;;;;;;5078846;28;20075;-80
2022/07/07 06:36:51;;;;;;;0.60;0.10;;;16.10;99.90;;;;;;5078882;28;20391;-80
2022/07/07 06:39:17;;;;;;;0.00;0.00;;;16.10;99.90;;;;;;5062066;28;20138;-79
2022/07/07 06:41:43;;;;;;;0.10;0.10;;;16.20;99.90;;;;;;5078688;28;20048;-79
2022/07/07 06:44:12;;;;;;;0.32;0.32;;;16.30;99.90;;;;;;5078620;28;20130;-79
2022/07/07 06:46:39;;;;;;;0.10;0.10;;;16.30;99.90;;;;;;5078577;28;20194;-79
2022/07/07 06:49:07;;;;;;;0.00;0.00;;;16.50;99.90;;;;;;5061731;28;20059;-79
2022/07/07 06:51:32;;;;;;;0.10;0.10;;;16.50;99.90;;;;;;5061594;28;20540;-79
2022/07/07 06:54:00;;;;;;;4.82;1.17;;;16.50;99.90;;;;;;5061373;28;20056;-79
2022/07/07 06:56:26;;;;;;;0.00;0.00;;;16.50;99.90;;;;;;5079055;28;20441;-79
2022/07/07 06:58:52;;;;;;;0.00;0.00;;;16.60;99.90;;;;;;5078346;28;20048;-79
2022/07/07 07:01:18;;;;;;;0.00;0.00;;;16.70;99.90;;;;;;5061489;28;20128;-80
2022/07/07 07:03:44;;;;;;;0.00;0.00;;;16.70;99.90;;;;;;5078236;28;20085;-80
2022/07/07 07:06:10;;;;;;;0.52;0.47;;;16.80;99.90;;;;;;5078315;28;20086;-80
2022/07/07 07:08:36;;;;;;;1.58;0.30;;;16.90;99.90;;;;;;5078062;28;20043;-79
2022/07/07 07:11:03;;;;;;;0.00;0.00;;;17.00;99.90;;;;;;5060638;28;20095;-79
2022/07/07 07:13:29;;;;;;;0.00;0.00;;;17.10;99.90;;;;;;5094795;28;20055;-79
2022/07/07 07:15:55;;;;;;;0.00;0.00;;;17.10;99.90;;;;;;5077971;28;20392;-79
2022/07/07 07:18:22;;;;;;;0.00;0.00;;;17.10;99.90;;;;;;5077895;28;20044;-79
2022/07/07 07:20:48;;;;;;;0.00;0.00;;;17.10;99.90;;;;;;5077957;28;20051;-80
2022/07/07 07:23:15;;;;;;;0.00;0.00;;;17.00;99.90;;;;;;5077645;28;20044;-79
2022/07/07 07:25:40;;;;;;;0.00;0.00;;;17.00;99.90;;;;;;5044536;28;20085;-79
2022/07/07 07:28:06;;;;;;;0.00;0.00;;;16.90;99.90;;;;;;5077542;28;20048;-80
2022/07/07 07:30:32;;;;;;;0.00;0.00;;;16.80;99.90;;;;;;5060417;28;20052;-79
2022/07/07 07:32:57;;;;;;;0.00;0.00;;;16.70;99.90;;;;;;5077182;28;20139;-79
2022/07/07 07:35:23;;;;;;;0.00;0.00;;;16.50;99.90;;;;;;5077677;28;20047;-79
2022/07/07 07:37:49;;;;;;;0.00;0.00;;;16.50;99.90;;;;;;5060079;28;20384;-79
2022/07/07 07:40:14;;;;;;;0.00;0.00;;;16.60;99.90;;;;;;5077691;28;20562;-79
2022/07/07 07:42:40;;;;;;;0.00;0.00;;;16.90;99.90;;;;;;5090886;28;20094;-79
2022/07/07 07:45:11;;;;;;;0.00;0.00;;;17.00;99.90;;;;;;5060679;28;20047;-79
2022/07/07 07:47:41;;;;;;;0.00;0.00;;;17.10;99.90;;;;;;5060986;28;20059;-79
2022/07/07 07:50:11;;;;;;;0.00;0.00;;;17.20;99.90;;;;;;5077152;28;20469;-79
2022/07/07 07:52:38;;;;;;;0.00;0.00;;;17.20;99.90;;;;;;5077378;28;20055;-79
2022/07/07 07:55:05;;;;;;;0.00;0.00;;;17.30;99.90;;;;;;5043811;28;20044;-79
2022/07/07 07:57:31;;;;;;;0.00;0.00;;;17.30;99.90;;;;;;5077199;28;20063;-79
2022/07/07 07:59:57;;;;;;;0.00;0.00;;;17.40;99.90;;;;;;5077032;28;20483;-79
2022/07/07 08:02:22;;;;;;;0.08;0.03;;;17.50;99.90;;;;;;5077165;28;20048;-79
2022/07/07 08:04:55;;;;;;;0.00;0.00;;;17.60;99.90;;;;;;5077167;28;20044;-79
2022/07/07 08:07:21;;;;;;;0.00;0.00;;;17.60;99.90;;;;;;5060475;28;20177;-80
2022/07/07 08:09:47;;;;;;;0.00;0.00;;;17.70;99.90;;;;;;5076726;28;20525;-79
2022/07/07 08:12:12;;;;;;;0.00;0.00;;;17.80;99.90;;;;;;5093766;28;20069;-79
2022/07/07 08:14:38;;;;;;;0.00;0.00;;;18.00;99.90;;;;;;5077578;28;20040;-79
2022/07/07 08:17:04;;;;;;;0.00;0.00;;;18.10;99.90;;;;;;5059543;28;20487;-79
2022/07/07 08:19:30;;;;;;;0.00;0.00;;;18.10;99.90;;;;;;5059930;28;20052;-79
2022/07/07 08:21:56;;;;;;;0.00;0.00;;;18.00;99.90;;;;;;5076620;28;20040;-79
2022/07/07 08:24:22;;;;;;;0.00;0.00;;;17.90;99.90;;;;;;5077226;28;20047;-79
2022/07/07 08:26:47;;;;;;;0.00;0.00;;;17.70;99.90;;;;;;5076578;28;20487;-79
2022/07/07 08:29:13;;;;;;;0.00;0.00;;;17.50;99.90;;;;;;5076693;28;20040;-79
2022/07/07 08:31:40;;;;;;;0.00;0.00;;;17.30;99.90;;;;;;5076198;28;20040;-79
2022/07/07 08:34:08;;;;;;;0.00;0.00;;;17.10;99.90;;;;;;5055858;28;20067;-79
2022/07/07 08:36:37;;;;;;;0.00;0.00;;;17.00;99.90;;;;;;5038748;28;20151;-79
2022/07/07 08:39:06;;;;;;;0.10;0.10;;;17.00;99.90;;;;;;5071932;28;20385;-78
2022/07/07 08:41:32;;;;;;;0.00;0.00;;;17.00;99.90;;;;;;5069115;28;20152;-79
2022/07/07 08:44:02;;;;;;;0.00;0.00;;;17.00;99.90;;;;;;5037698;28;20535;-79
2022/07/07 08:46:29;;;;;;;0.00;0.00;;;17.00;99.90;;;;;;5055338;28;20074;-79
2022/07/07 08:48:55;;;;;;;0.00;0.00;;;17.30;99.90;;;;;;5055246;28;20143;-79
2022/07/07 08:51:21;;;;;;;0.13;0.13;;;17.50;99.90;;;;;;5055445;28;20040;-78
2022/07/07 08:53:51;;;;;;;0.00;0.00;;;17.70;99.90;;;;;;5054838;28;20579;-79
2022/07/07 08:56:18;;;;;;;0.00;0.00;;;17.90;99.90;;;;;;5052458;28;20594;-78
2022/07/07 08:58:45;;;;;;;0.00;0.00;;;18.00;99.90;;;;;;5038144;28;20563;-78
2022/07/07 09:01:11;;;;;;;0.00;0.00;;;18.20;99.90;;;;;;5038327;28;20044;-81
2022/07/07 09:03:36;;;;;;;0.45;0.20;;;18.30;99.90;;;;;;5054268;28;20049;-78
2022/07/07 09:06:05;;;;;;;0.00;0.00;;;18.40;99.90;;;;;;5057117;28;20056;-78
2022/07/07 09:08:33;;;;;;;0.00;0.00;;;18.40;99.90;;;;;;5076407;28;20058;-78
2022/07/07 09:10:59;;;;;;;0.00;0.00;;;18.20;99.90;;;;;;5059185;28;20048;-78
2022/07/07 09:13:30;;;;;;;0.00;0.00;;;18.10;99.90;;;;;;5059599;28;20058;-78
2022/07/07 09:16:02;;;;;;;0.00;0.00;;;18.10;99.90;;;;;;5075914;28;20427;-79
2022/07/07 09:18:35;;;;;;;0.00;0.00;;;18.00;99.90;;;;;;5091442;28;20503;-80
2022/07/07 09:21:23;;;;;;;0.00;0.00;;;18.10;99.90;;;;;;5095182;28;20047;-80
2022/07/07 09:24:00;;;;;;;0.45;0.30;;;18.30;99.90;;;;;;5102471;28;20051;-79
2022/07/07 09:26:36;;;;;;;0.00;0.00;;;18.50;99.90;;;;;;5094802;28;20050;-79
2022/07/07 09:29:04;;;;;;;0.00;0.00;;;18.80;99.90;;;;;;5110685;28;20184;-79
2022/07/07 09:31:59;;;;;;;0.00;0.00;;;19.00;99.90;;;;;;5095791;28;20039;-79
2022/07/07 09:34:30;;;;;;;0.00;0.00;;;18.90;99.90;;;;;;5095888;28;20040;-80
2022/07/07 09:39:50;;;;;;;0.00;0.00;;;18.70;99.90;;;;;;5113318;28;20053;-79
2022/07/07 09:42:25;;;;;;;0.00;0.00;;;18.60;99.90;;;;;;5113108;28;20044;-80
2022/07/07 09:44:56;;;;;;;0.00;0.00;;;18.50;99.90;;;;;;5112659;28;20479;-80
2022/07/07 09:47:24;;;;;;;0.00;0.00;;;18.20;99.90;;;;;;5113426;28;20058;-80
2022/07/07 09:50:05;;;;;;;0.00;0.00;;;18.10;99.90;;;;;;5095480;28;20059;-80
2022/07/07 09:52:33;;;;;;;0.00;0.00;;;17.90;99.90;;;;;;5112955;28;20040;-80
2022/07/07 09:55:00;;;;;;;0.00;0.00;;;17.80;99.90;;;;;;5112749;28;20086;-80
2022/07/07 09:57:29;;;;;;;0.00;0.00;;;17.60;99.90;;;;;;5112686;28;20043;-80
2022/07/07 09:59:55;;;;;;;0.00;0.00;;;17.60;99.90;;;;;;5079783;28;20197;-80
2022/07/07 10:02:29;;;;;;;0.00;0.00;;;17.70;99.90;;;;;;5116745;28;20134;-80
2022/07/07 10:05:00;;;;;;;0.00;0.00;;;17.80;99.90;;;;;;5099649;28;20447;-80
2022/07/07 10:07:28;;;;;;;0.20;0.10;;;17.80;99.90;;;;;;5081910;28;20078;-79
2022/07/07 10:10:06;;;;;;;0.00;0.00;;;17.80;99.90;;;;;;5098970;28;20047;-80
2022/07/07 10:12:32;;;;;;;0.10;0.10;;;17.80;99.90;;;;;;5099587;28;20542;-80
2022/07/07 10:15:11;;;;;;;0.20;0.00;;;17.70;99.90;;;;;;5097912;28;20063;-79
2022/07/07 10:17:44;;;;;;;0.00;0.00;;;17.60;99.90;;;;;;5097017;28;20075;-80
2022/07/07 10:20:11;;;;;;;0.00;0.00;;;17.50;99.90;;;;;;5112785;28;20437;-80
2022/07/07 10:22:37;;;;;;;0.00;0.00;;;17.50;99.90;;;;;;5114638;28;20056;-80
2022/07/07 10:25:07;;;;;;;0.00;0.00;;;17.50;99.90;;;;;;5098917;28;20054;-80
2022/07/07 10:27:34;;;;;;;0.00;0.00;;;17.60;99.90;;;;;;5082395;28;20051;-80
2022/07/07 10:30:02;;;;;;;0.10;0.00;;;17.80;99.90;;;;;;5099219;28;20489;-80
2022/07/07 10:32:34;;;;;;;0.00;0.00;;;18.10;99.90;;;;;;5098999;28;20060;-80
2022/07/07 10:35:13;;;;;;;0.00;0.00;;;18.60;99.90;;;;;;5099463;28;20047;-80
2022/07/07 10:37:46;;;;;;;0.00;0.00;;;19.10;99.90;;;;;;5099137;28;20101;-80
2022/07/07 10:40:16;;;;;;;0.00;0.00;;;19.20;99.90;;;;;;5082510;28;20035;-80
2022/07/07 10:42:50;;;;;;;0.00;0.00;;;19.10;99.90;;;;;;5082038;28;20083;-79
2022/07/07 10:45:17;;;;;;;0.00;0.00;;;18.90;99.90;;;;;;5081987;28;20044;-80
2022/07/07 10:47:43;;;;;;;0.05;0.00;;;18.80;99.90;;;;;;5082157;28;20047;-80
2022/07/07 10:50:31;;;;;;;0.00;0.00;;;18.80;99.90;;;;;;5099604;28;20048;-80
2022/07/07 10:52:58;;;;;;;0.00;0.00;;;18.70;99.90;;;;;;5065123;28;20044;-80
2022/07/07 10:55:50;;;;;;;0.85;0.20;;;18.70;99.90;;;;;;5098629;28;20046;-80
2022/07/07 10:58:58;;;;;;;0.10;0.10;;;18.70;99.90;;;;;;5098810;28;20036;-80
2022/07/07 11:01:28;;;;;;;0.00;0.00;;;18.70;99.90;;;;;;5081615;28;20036;-81
2022/07/07 11:03:54;;;;;;;0.00;0.00;;;18.70;99.90;;;;;;5081692;28;20051;-80
2022/07/07 11:06:20;;;;;;;0.00;0.00;;;18.60;99.90;;;;;;5098487;28;20043;-80
2022/07/07 11:08:57;;;;;;;0.05;0.05;;;18.50;99.90;;;;;;5098395;28;20047;-81
2022/07/07 11:11:23;;;;;;;0.00;0.00;;;18.30;99.90;;;;;;5109707;28;20083;-80
2022/07/07 11:14:02;;;;;;;0.00;0.00;;;18.00;99.90;;;;;;5096859;28;20113;-80
2022/07/07 11:16:29;;;;;;;0.00;0.00;;;17.80;99.90;;;;;;5097710;28;20047;-80
2022/07/07 11:19:00;;;;;;;0.00;0.00;;;17.70;99.90;;;;;;5115181;28;20042;-80
2022/07/07 11:21:47;;;;;;;0.38;0.10;;;17.60;99.90;;;;;;5098967;28;20040;-80
2022/07/07 11:24:23;;;;;;;0.08;0.05;;;17.60;99.90;;;;;;5098132;28;20525;-80
2022/07/07 11:27:01;;;;;;;0.00;0.00;;;17.60;99.90;;;;;;5079739;28;20047;-80
2022/07/07 11:29:27;;;;;;;0.25;0.25;;;17.60;99.90;;;;;;5098316;28;20053;-80
2022/07/07 11:32:09;;;;;;;0.60;0.25;;;17.70;99.90;;;;;;5098021;28;20503;-80
2022/07/07 11:34:43;;;;;;;0.00;0.00;;;17.60;99.90;;;;;;5080962;28;20063;-80
2022/07/07 11:37:18;;;;;;;0.00;0.00;;;17.50;99.90;;;;;;5080504;28;20062;-80
2022/07/07 11:39:45;;;;;;;0.00;0.00;;;17.50;99.90;;;;;;5081028;28;20083;-80
2022/07/07 11:42:11;;;;;;;0.00;0.00;;;17.50;99.90;;;;;;5080993;28;20047;-80
2022/07/07 11:44:38;;;;;;;0.00;0.00;;;17.50;99.90;;;;;;5097776;28;20108;-80
2022/07/07 11:47:04;;;;;;;0.00;0.00;;;17.60;99.90;;;;;;5098027;28;20048;-79
2022/07/07 11:49:53;;;;;;;0.03;0.00;;;17.70;99.90;;;;;;5100004;28;20085;-80
2022/07/07 11:52:24;;;;;;;0.70;0.40;;;17.90;99.90;;;;;;5080951;28;20044;-80
2022/07/07 11:54:52;;;;;;;0.00;0.00;;;18.20;99.90;;;;;;5080017;28;20060;-80
2022/07/07 11:57:34;;;;;;;1.20;0.20;;;18.30;99.90;;;;;;5080914;28;20093;-80
2022/07/07 12:00:19;;;;;;;0.00;0.00;;;18.50;99.90;;;;;;5097419;28;20126;-80
2022/07/07 12:02:47;;;;;;;0.10;0.10;;;18.60;99.90;;;;;;5080826;28;20130;-80
2022/07/07 12:05:16;;;;;;;0.35;0.25;;;18.60;99.90;;;;;;5096950;28;20040;-80
2022/07/07 12:07:56;;;;;;;0.00;0.00;;;18.50;99.90;;;;;;5097762;28;20052;-80
2022/07/07 12:10:21;;;;;;;0.00;0.00;;;18.30;99.90;;;;;;5097049;28;20048;-80
2022/07/07 12:12:59;;;;;;;0.00;0.00;;;18.10;99.90;;;;;;5097149;28;20066;-80
2022/07/07 12:15:34;;;;;;;0.77;0.50;;;18.00;99.90;;;;;;5080557;28;20112;-80
2022/07/07 12:18:01;;;;;;;0.20;0.20;;;18.00;99.90;;;;;;5097554;28;20052;-80
2022/07/07 12:20:27;;;;;;;0.00;0.00;;;18.10;99.90;;;;;;5097073;28;20082;-80
2022/07/07 12:22:55;;;;;;;2.10;0.80;;;18.20;99.90;;;;;;5113604;28;20117;-80
2022/07/07 12:25:27;;;;;;;0.00;0.00;;;18.30;99.90;;;;;;5097229;28;20050;-80
2022/07/07 12:27:54;;;;;;;0.28;0.28;;;18.20;99.90;;;;;;5097158;28;20084;-80
2022/07/07 12:30:20;;;;;;;6.43;0.40;;;18.00;99.90;;;;;;5079882;28;20043;-80
2022/07/07 12:32:46;;;;;;;0.17;0.17;;;17.90;99.90;;;;;;5080112;28;20498;-80
2022/07/07 12:35:31;;;;;;;0.00;0.00;;;17.80;99.90;;;;;;5096853;28;20079;-80
2022/07/07 12:38:02;;;;;;;0.30;0.30;;;17.80;99.90;;;;;;5080158;28;20087;-80
2022/07/07 12:40:29;;;;;;;0.77;0.52;;;17.90;99.90;;;;;;5097306;28;20051;-80
2022/07/07 12:43:15;;;;;;;0.75;0.43;;;18.10;99.90;;;;;;5079822;28;20044;-80
2022/07/07 12:45:42;;;;;;;0.88;0.20;;;18.20;99.90;;;;;;5080016;28;20051;-80
2022/07/07 12:48:18;;;;;;;0.45;0.20;;;18.50;99.90;;;;;;5079699;28;20376;-80
2022/07/07 12:50:44;;;;;;;0.10;0.10;;;18.60;99.90;;;;;;5096437;28;20044;-80
2022/07/07 12:53:09;;;;;;;0.20;0.20;;;18.60;99.90;;;;;;5096502;28;20113;-80
2022/07/07 12:55:39;;;;;;;0.10;0.10;;;18.60;99.90;;;;;;5079255;28;20487;-80
2022/07/07 12:58:23;;;;;;;0.15;0.10;;;18.50;99.90;;;;;;5080850;28;20089;-80